sensor_id;sensor_type;location;lat;lon;timestamp;pressure;altitude;pressure_sealevel;temperature;humidity
55032;BME280;40928;51.076;7.950;2023-07-31T00:00:37;96736.78;;;13.98;100.00
55032;BME280;40928;51.076;7.950;2023-07-31T00:03:02;96729.28;;;14.00;100.00
55032;BME280;40928;51.076;7.950;2023-07-31T00:05:28;96731.16;;;13.99;100.00
55032;BME280;40928;51.076;7.950;2023-07-31T00:07:53;96728.19;;;14.06;100.00
55032;BME280;40928;51.076;7.950;2023-07-31T00:10:20;96717.72;;;14.05;100.00
55032;BME280;40928;51.076;7.950;2023-07-31T00:12:45;96727.94;;;14.03;100.00
55032;BME280;40928;51.076;7.950;2023-07-31T00:15:13;96726.84;;;13.98;100.00
55032;BME280;40928;51.076;7.950;2023-07-31T00:17:39;96723.34;;;14.03;100.00
55032;BME280;40928;51.076;7.950;2023-07-31T00:20:05;96724.97;;;13.99;100.00
55032;BME280;40928;51.076;7.950;2023-07-31T00:22:31;96720.69;;;13.98;100.00
55032;BME280;40928;51.076;7.950;2023-07-31T00:24:57;96718.53;;;14.05;100.00
55032;BME280;40928;51.076;7.950;2023-07-31T00:27:23;96712.63;;;14.08;100.00
55032;BME280;40928;51.076;7.950;2023-07-31T00:29:49;96709.94;;;14.13;100.00
55032;BME280;40928;51.076;7.950;2023-07-31T00:32:15;96703.78;;;14.08;100.00
55032;BME280;40928;51.076;7.950;2023-07-31T00:34:40;96705.09;;;14.10;100.00
55032;BME280;40928;51.076;7.950;2023-07-31T00:37:06;96704.03;;;14.06;100.00
55032;BME280;40928;51.076;7.950;2023-07-31T00:39:33;96697.59;;;14.07;100.00
55032;BME280;40928;51.076;7.950;2023-07-31T00:41:59;96705.13;;;14.15;100.00
55032;BME280;40928;51.076;7.950;2023-07-31T00:44:24;96701.63;;;14.20;100.00
55032;BME280;40928;51.076;7.950;2023-07-31T00:46:50;96707.25;;;14.13;100.00
55032;BME280;40928;51.076;7.950;2023-07-31T00:49:16;96707.53;;;14.17;100.00
55032;BME280;40928;51.076;7.950;2023-07-31T00:51:42;96705.91;;;14.21;100.00
55032;BME280;40928;51.076;7.950;2023-07-31T00:54:08;96715.84;;;14.10;100.00
55032;BME280;40928;51.076;7.950;2023-07-31T00:56:33;96702.97;;;14.07;100.00
55032;BME280;40928;51.076;7.950;2023-07-31T00:59:00;96701.09;;;14.03;100.00
55032;BME280;40928;51.076;7.950;2023-07-31T01:01:25;96701.88;;;14.03;100.00
55032;BME280;40928;51.076;7.950;2023-07-31T01:03:52;96704.28;;;14.10;100.00
55032;BME280;40928;51.076;7.950;2023-07-31T01:11:30;96698.94;;;14.20;100.00
55032;BME280;40928;51.076;7.950;2023-07-31T01:13:56;96696.78;;;14.12;100.00
55032;BME280;40928;51.076;7.950;2023-07-31T01:16:22;96694.38;;;14.10;100.00
55032;BME280;40928;51.076;7.950;2023-07-31T01:18:48;96691.69;;;14.15;100.00
55032;BME280;40928;51.076;7.950;2023-07-31T01:24:28;96700.78;;;14.20;100.00
55032;BME280;40928;51.076;7.950;2023-07-31T01:27:06;96690.06;;;14.20;100.00
55032;BME280;40928;51.076;7.950;2023-07-31T01:32:09;96696.50;;;14.19;100.00
55032;BME280;40928;51.076;7.950;2023-07-31T01:34:36;96687.13;;;14.21;100.00
55032;BME280;40928;51.076;7.950;2023-07-31T01:37:02;96677.16;;;14.22;100.00
55032;BME280;40928;51.076;7.950;2023-07-31T01:39:28;96682.81;;;14.20;100.00
55032;BME280;40928;51.076;7.950;2023-07-31T01:41:54;96687.38;;;14.20;100.00
55032;BME280;40928;51.076;7.950;2023-07-31T01:44:19;96669.66;;;14.19;100.00
55032;BME280;40928;51.076;7.950;2023-07-31T01:46:45;96685.50;;;14.20;100.00
55032;BME280;40928;51.076;7.950;2023-07-31T01:49:11;96682.78;;;14.25;100.00
55032;BME280;40928;51.076;7.950;2023-07-31T01:51:36;96672.88;;;14.21;100.00
55032;BME280;40928;51.076;7.950;2023-07-31T01:54:02;96674.75;;;14.20;100.00
55032;BME280;40928;51.076;7.950;2023-07-31T01:56:27;96672.06;;;14.25;100.00
55032;BME280;40928;51.076;7.950;2023-07-31T01:58:53;96664.28;;;14.24;100.00
55032;BME280;40928;51.076;7.950;2023-07-31T02:01:19;96659.97;;;14.28;100.00
55032;BME280;40928;51.076;7.950;2023-07-31T02:03:45;96664.81;;;14.26;100.00
55032;BME280;40928;51.076;7.950;2023-07-31T02:06:10;96662.66;;;14.23;100.00
55032;BME280;40928;51.076;7.950;2023-07-31T02:08:36;96690.06;;;14.25;100.00
55032;BME280;40928;51.076;7.950;2023-07-31T02:11:03;96676.63;;;14.20;100.00
55032;BME280;40928;51.076;7.950;2023-07-31T02:13:30;96668.56;;;14.25;100.00
55032;BME280;40928;51.076;7.950;2023-07-31T02:15:55;96665.34;;;14.23;100.00
55032;BME280;40928;51.076;7.950;2023-07-31T02:18:21;96661.88;;;14.17;100.00
55032;BME280;40928;51.076;7.950;2023-07-31T02:20:51;96659.72;;;14.19;100.00
55032;BME280;40928;51.076;7.950;2023-07-31T02:23:18;96665.88;;;14.20;100.00
55032;BME280;40928;51.076;7.950;2023-07-31T02:25:44;96658.13;;;14.18;100.00
55032;BME280;40928;51.076;7.950;2023-07-31T02:28:10;96665.09;;;14.19;100.00
55032;BME280;40928;51.076;7.950;2023-07-31T02:30:35;96663.47;;;14.18;100.00
55032;BME280;40928;51.076;7.950;2023-07-31T02:33:01;96657.28;;;14.18;100.00
55032;BME280;40928;51.076;7.950;2023-07-31T02:35:26;96653.28;;;14.15;100.00
55032;BME280;40928;51.076;7.950;2023-07-31T02:37:52;96663.19;;;14.20;100.00
55032;BME280;40928;51.076;7.950;2023-07-31T02:40:18;96654.88;;;14.16;100.00
55032;BME280;40928;51.076;7.950;2023-07-31T02:42:44;96655.72;;;14.11;100.00
55032;BME280;40928;51.076;7.950;2023-07-31T02:45:11;96662.94;;;14.16;100.00
55032;BME280;40928;51.076;7.950;2023-07-31T02:47:36;96656.25;;;14.13;100.00
55032;BME280;40928;51.076;7.950;2023-07-31T02:50:03;96653.81;;;14.12;100.00
55032;BME280;40928;51.076;7.950;2023-07-31T02:52:29;96653.28;;;14.15;100.00
55032;BME280;40928;51.076;7.950;2023-07-31T02:54:54;96653.28;;;14.15;100.00
55032;BME280;40928;51.076;7.950;2023-07-31T02:57:20;96643.34;;;14.15;100.00
55032;BME280;40928;51.076;7.950;2023-07-31T02:59:45;96656.22;;;14.19;100.00
55032;BME280;40928;51.076;7.950;2023-07-31T03:02:11;96645.75;;;14.22;100.00
55032;BME280;40928;51.076;7.950;2023-07-31T03:04:38;96648.69;;;14.21;100.00
55032;BME280;40928;51.076;7.950;2023-07-31T03:07:04;96648.44;;;14.22;100.00
55032;BME280;40928;51.076;7.950;2023-07-31T03:09:30;96638.50;;;14.23;100.00
55032;BME280;40928;51.076;7.950;2023-07-31T03:11:55;96643.31;;;14.26;100.00
55032;BME280;40928;51.076;7.950;2023-07-31T03:14:21;96648.16;;;14.24;100.00
55032;BME280;40928;51.076;7.950;2023-07-31T03:16:46;96636.34;;;14.25;100.00
55032;BME280;40928;51.076;7.950;2023-07-31T03:19:12;96637.69;;;14.22;100.00
55032;BME280;40928;51.076;7.950;2023-07-31T03:21:38;96632.03;;;14.29;100.00
55032;BME280;40928;51.076;7.950;2023-07-31T03:24:04;96635.28;;;14.31;100.00
55032;BME280;40928;51.076;7.950;2023-07-31T03:26:31;96629.63;;;14.27;100.00
55032;BME280;40928;51.076;7.950;2023-07-31T03:28:57;96630.69;;;14.26;100.00
55032;BME280;40928;51.076;7.950;2023-07-31T03:31:22;96640.09;;;14.24;100.00
55032;BME280;40928;51.076;7.950;2023-07-31T03:33:48;96636.59;;;14.28;100.00
55032;BME280;40928;51.076;7.950;2023-07-31T03:36:14;96625.84;;;14.28;100.00
55032;BME280;40928;51.076;7.950;2023-07-31T03:38:39;96625.88;;;14.23;100.00
55032;BME280;40928;51.076;7.950;2023-07-31T03:41:06;96626.41;;;14.25;100.00
55032;BME280;40928;51.076;7.950;2023-07-31T03:43:32;96617.81;;;14.28;100.00
55032;BME280;40928;51.076;7.950;2023-07-31T03:46:01;96614.84;;;14.30;100.00
55032;BME280;40928;51.076;7.950;2023-07-31T03:48:28;96614.56;;;14.26;100.00
55032;BME280;40928;51.076;7.950;2023-07-31T03:50:54;96611.91;;;14.26;100.00
55032;BME280;40928;51.076;7.950;2023-07-31T03:53:21;96612.72;;;14.27;100.00
55032;BME280;40928;51.076;7.950;2023-07-31T03:55:46;96603.81;;;14.37;100.00
55032;BME280;40928;51.076;7.950;2023-07-31T03:58:12;96613.50;;;14.32;100.00
55032;BME280;40928;51.076;7.950;2023-07-31T04:00:39;96613.50;;;14.27;100.00
55032;BME280;40928;51.076;7.950;2023-07-31T04:03:04;96603.84;;;14.31;100.00
55032;BME280;40928;51.076;7.950;2023-07-31T04:05:32;96610.28;;;14.30;100.00
55032;BME280;40928;51.076;7.950;2023-07-31T04:07:57;96600.34;;;14.31;100.00
55032;BME280;40928;51.076;7.950;2023-07-31T04:10:23;96607.34;;;14.32;100.00
55032;BME280;40928;51.076;7.950;2023-07-31T04:12:48;96608.41;;;14.31;100.00
55032;BME280;40928;51.076;7.950;2023-07-31T04:15:14;96607.06;;;14.28;100.00
55032;BME280;40928;51.076;7.950;2023-07-31T04:17:39;96604.13;;;14.30;100.00
55032;BME280;40928;51.076;7.950;2023-07-31T04:20:05;96594.97;;;14.31;100.00
55032;BME280;40928;51.076;7.950;2023-07-31T04:22:31;96594.97;;;14.31;100.00
55032;BME280;40928;51.076;7.950;2023-07-31T04:24:56;96589.56;;;14.36;100.00
55032;BME280;40928;51.076;7.950;2023-07-31T04:27:22;96598.47;;;14.31;100.00
55032;BME280;40928;51.076;7.950;2023-07-31T04:29:48;96600.34;;;14.31;100.00
55032;BME280;40928;51.076;7.950;2023-07-31T04:32:13;96594.94;;;14.36;100.00
55032;BME280;40928;51.076;7.950;2023-07-31T04:34:42;96599.53;;;14.36;100.00
55032;BME280;40928;51.076;7.950;2023-07-31T04:37:15;96588.25;;;14.34;100.00
55032;BME280;40928;51.076;7.950;2023-07-31T04:39:41;96589.06;;;14.29;100.00
55032;BME280;40928;51.076;7.950;2023-07-31T04:42:06;96596.59;;;14.27;100.00
55032;BME280;40928;51.076;7.950;2023-07-31T04:44:32;96600.09;;;14.22;100.00
55032;BME280;40928;51.076;7.950;2023-07-31T04:46:57;96601.16;;;14.26;100.00
55032;BME280;40928;51.076;7.950;2023-07-31T04:49:23;96603.34;;;14.24;100.00
55032;BME280;40928;51.076;7.950;2023-07-31T04:51:48;96605.47;;;14.22;100.00
55032;BME280;40928;51.076;7.950;2023-07-31T04:54:14;96611.91;;;14.26;100.00
55032;BME280;40928;51.076;7.950;2023-07-31T04:56:40;96600.09;;;14.22;100.00
55032;BME280;40928;51.076;7.950;2023-07-31T04:59:06;96605.19;;;14.24;100.00
55032;BME280;40928;51.076;7.950;2023-07-31T05:01:32;96605.75;;;14.15;100.00
55032;BME280;40928;51.076;7.950;2023-07-31T05:03:57;96603.88;;;14.16;100.00
55032;BME280;40928;51.076;7.950;2023-07-31T05:06:23;96602.25;;;14.20;100.00
55032;BME280;40928;51.076;7.950;2023-07-31T05:08:48;96604.16;;;14.14;100.00
55032;BME280;40928;51.076;7.950;2023-07-31T05:11:14;96607.63;;;14.20;100.00
55032;BME280;40928;51.076;7.950;2023-07-31T05:13:40;96609.78;;;14.18;100.00
55032;BME280;40928;51.076;7.950;2023-07-31T05:16:05;96606.56;;;14.16;100.00
55032;BME280;40928;51.076;7.950;2023-07-31T05:18:30;96604.94;;;14.15;100.00
55032;BME280;40928;51.076;7.950;2023-07-31T05:20:56;96610.28;;;14.25;100.00
55032;BME280;40928;51.076;7.950;2023-07-31T05:23:21;96598.22;;;14.18;100.00
55032;BME280;40928;51.076;7.950;2023-07-31T05:25:47;96596.06;;;14.20;100.00
55032;BME280;40928;51.076;7.950;2023-07-31T05:28:46;96597.69;;;14.21;100.00
55032;BME280;40928;51.076;7.950;2023-07-31T05:31:11;96593.09;;;14.26;100.00
55032;BME280;40928;51.076;7.950;2023-07-31T05:33:37;96588.53;;;14.22;100.00
55032;BME280;40928;51.076;7.950;2023-07-31T05:36:02;96591.22;;;14.22;100.00
55032;BME280;40928;51.076;7.950;2023-07-31T05:38:28;96574.34;;;14.21;100.00
55032;BME280;40928;51.076;7.950;2023-07-31T05:40:54;96584.28;;;14.15;100.00
55032;BME280;40928;51.076;7.950;2023-07-31T05:43:19;96564.91;;;14.24;100.00
55032;BME280;40928;51.076;7.950;2023-07-31T05:45:45;96570.81;;;14.26;100.00
55032;BME280;40928;51.076;7.950;2023-07-31T05:48:10;96555.78;;;14.30;100.00
55032;BME280;40928;51.076;7.950;2023-07-31T05:50:36;96555.50;;;14.31;100.00
55032;BME280;40928;51.076;7.950;2023-07-31T05:53:04;96556.81;;;14.39;100.00
55032;BME280;40928;51.076;7.950;2023-07-31T05:55:29;96558.41;;;14.35;100.00
55032;BME280;40928;51.076;7.950;2023-07-31T05:57:55;96555.47;;;14.37;100.00
55032;BME280;40928;51.076;7.950;2023-07-31T06:00:21;96555.13;;;14.49;100.00
55032;BME280;40928;51.076;7.950;2023-07-31T06:02:48;96557.59;;;14.45;100.00
55032;BME280;40928;51.076;7.950;2023-07-31T06:05:13;96554.06;;;14.50;100.00
55032;BME280;40928;51.076;7.950;2023-07-31T06:07:39;96546.53;;;14.52;100.00
55032;BME280;40928;51.076;7.950;2023-07-31T06:10:05;96542.22;;;14.56;100.00
55032;BME280;40928;51.076;7.950;2023-07-31T06:12:32;96530.88;;;14.64;100.00
55032;BME280;40928;51.076;7.950;2023-07-31T06:14:57;96534.13;;;14.71;100.00
55032;BME280;40928;51.076;7.950;2023-07-31T06:17:23;96524.41;;;14.75;100.00
55032;BME280;40928;51.076;7.950;2023-07-31T06:19:49;96533.22;;;14.86;100.00
55032;BME280;40928;51.076;7.950;2023-07-31T06:22:15;96529.44;;;14.87;100.00
55032;BME280;40928;51.076;7.950;2023-07-31T06:24:40;96534.03;;;14.87;100.00
55032;BME280;40928;51.076;7.950;2023-07-31T06:27:06;96516.56;;;14.84;100.00
55032;BME280;40928;51.076;7.950;2023-07-31T06:29:32;96521.91;;;14.89;100.00
55032;BME280;40928;51.076;7.950;2023-07-31T06:31:58;96519.22;;;14.89;100.00
55032;BME280;40928;51.076;7.950;2023-07-31T06:34:24;96528.63;;;14.92;100.00
55032;BME280;40928;51.076;7.950;2023-07-31T06:36:50;96536.69;;;14.92;100.00
55032;BME280;40928;51.076;7.950;2023-07-31T06:39:15;96535.88;;;14.91;100.00
55032;BME280;40928;51.076;7.950;2023-07-31T06:41:42;96528.34;;;14.94;100.00
55032;BME280;40928;51.076;7.950;2023-07-31T06:44:10;96531.56;;;14.90;100.00
55032;BME280;40928;51.076;7.950;2023-07-31T06:46:35;96534.00;;;14.92;100.00
55032;BME280;40928;51.076;7.950;2023-07-31T06:49:01;96542.53;;;14.99;100.00
55032;BME280;40928;51.076;7.950;2023-07-31T06:51:26;96529.38;;;14.98;100.00
55032;BME280;40928;51.076;7.950;2023-07-31T06:53:52;96529.34;;;15.03;100.00
55032;BME280;40928;51.076;7.950;2023-07-31T06:56:17;96528.03;;;15.00;100.00
55032;BME280;40928;51.076;7.950;2023-07-31T06:58:43;96522.13;;;14.98;100.00
55032;BME280;40928;51.076;7.950;2023-07-31T07:01:08;96526.50;;;14.89;100.00
55032;BME280;40928;51.076;7.950;2023-07-31T07:03:34;96522.97;;;14.88;100.00
55032;BME280;40928;51.076;7.950;2023-07-31T07:06:00;96521.97;;;14.79;100.00
55032;BME280;40928;51.076;7.950;2023-07-31T07:08:25;96516.31;;;14.81;100.00
55032;BME280;40928;51.076;7.950;2023-07-31T07:10:51;96522.22;;;14.83;100.00
55032;BME280;40928;51.076;7.950;2023-07-31T07:13:17;96506.09;;;14.83;100.00
55032;BME280;40928;51.076;7.950;2023-07-31T07:15:48;96509.63;;;14.78;100.00
55032;BME280;40928;51.076;7.950;2023-07-31T07:18:13;96508.56;;;14.74;100.00
55032;BME280;40928;51.076;7.950;2023-07-31T07:20:39;96511.53;;;14.72;100.00
55032;BME280;40928;51.076;7.950;2023-07-31T07:23:05;96513.31;;;14.87;100.00
55032;BME280;40928;51.076;7.950;2023-07-31T07:25:30;96510.69;;;14.82;100.00
55032;BME280;40928;51.076;7.950;2023-07-31T07:27:56;96506.63;;;14.85;100.00
55032;BME280;40928;51.076;7.950;2023-07-31T07:30:21;96504.97;;;14.89;100.00
55032;BME280;40928;51.076;7.950;2023-07-31T07:32:48;96493.41;;;14.88;100.00
55032;BME280;40928;51.076;7.950;2023-07-31T07:35:14;96502.28;;;14.94;100.00
55032;BME280;40928;51.076;7.950;2023-07-31T07:37:39;96501.38;;;15.04;100.00
55032;BME280;40928;51.076;7.950;2023-07-31T07:40:06;96478.44;;;15.12;100.00
55032;BME280;40928;51.076;7.950;2023-07-31T07:42:31;96488.63;;;15.20;100.00
55032;BME280;40928;51.076;7.950;2023-07-31T07:44:57;96494.44;;;15.32;100.00
55032;BME280;40928;51.076;7.950;2023-07-31T07:47:22;96506.44;;;15.45;100.00
55032;BME280;40928;51.076;7.950;2023-07-31T07:49:48;96503.97;;;15.49;100.00
55032;BME280;40928;51.076;7.950;2023-07-31T07:52:13;96498.25;;;15.56;100.00
55032;BME280;40928;51.076;7.950;2023-07-31T07:54:39;96497.72;;;15.53;100.00
55032;BME280;40928;51.076;7.950;2023-07-31T07:57:11;96497.31;;;15.71;100.00
55032;BME280;40928;51.076;7.950;2023-07-31T07:59:36;96497.53;;;15.74;100.00
55032;BME280;40928;51.076;7.950;2023-07-31T08:02:02;96503.97;;;15.78;100.00
55032;BME280;40928;51.076;7.950;2023-07-31T08:04:27;96504.22;;;15.77;100.00
55032;BME280;40928;51.076;7.950;2023-07-31T08:06:53;96511.75;;;15.80;100.00
55032;BME280;40928;51.076;7.950;2023-07-31T08:09:18;96511.97;;;15.83;100.00
55032;BME280;40928;51.076;7.950;2023-07-31T08:11:44;96499.59;;;15.82;100.00
55032;BME280;40928;51.076;7.950;2023-07-31T08:14:09;96508.25;;;15.79;100.00
55032;BME280;40928;51.076;7.950;2023-07-31T08:16:38;96502.41;;;15.72;100.00
55032;BME280;40928;51.076;7.950;2023-07-31T08:19:04;96493.00;;;15.70;100.00
55032;BME280;40928;51.076;7.950;2023-07-31T08:21:29;96494.16;;;15.63;100.00
55032;BME280;40928;51.076;7.950;2023-07-31T08:23:55;96492.84;;;15.61;100.00
55032;BME280;40928;51.076;7.950;2023-07-31T08:26:23;96486.69;;;15.55;100.00
55032;BME280;40928;51.076;7.950;2023-07-31T08:28:49;96491.56;;;15.53;100.00
55032;BME280;40928;51.076;7.950;2023-07-31T08:31:16;96482.59;;;15.33;100.00
55032;BME280;40928;51.076;7.950;2023-07-31T08:33:44;96487.03;;;15.48;100.00
55032;BME280;40928;51.076;7.950;2023-07-31T08:36:09;96491.06;;;15.46;100.00
55032;BME280;40928;51.076;7.950;2023-07-31T08:38:36;96496.41;;;15.51;100.00
55032;BME280;40928;51.076;7.950;2023-07-31T08:41:03;96488.91;;;15.48;100.00
55032;BME280;40928;51.076;7.950;2023-07-31T08:43:30;96491.06;;;15.46;100.00
55032;BME280;40928;51.076;7.950;2023-07-31T08:45:56;96488.63;;;15.49;100.00
55032;BME280;40928;51.076;7.950;2023-07-31T08:48:37;96499.00;;;15.61;100.00
55032;BME280;40928;51.076;7.950;2023-07-31T08:51:04;96492.88;;;15.56;100.00
55032;BME280;40928;51.076;7.950;2023-07-31T08:53:30;96487.97;;;15.63;100.00
55032;BME280;40928;51.076;7.950;2023-07-31T08:55:56;96495.34;;;15.52;100.00
55032;BME280;40928;51.076;7.950;2023-07-31T08:58:23;96492.09;;;15.55;100.00
55032;BME280;40928;51.076;7.950;2023-07-31T09:00:50;96480.28;;;15.51;100.00
55032;BME280;40928;51.076;7.950;2023-07-31T09:03:20;96480.78;;;15.53;100.00
55032;BME280;40928;51.076;7.950;2023-07-31T09:05:47;96479.53;;;15.45;100.00
55032;BME280;40928;51.076;7.950;2023-07-31T09:08:13;96474.38;;;15.49;100.00
55032;BME280;40928;51.076;7.950;2023-07-31T09:10:43;96473.59;;;15.48;100.00
55032;BME280;40928;51.076;7.950;2023-07-31T09:13:09;96482.41;;;15.54;100.00
55032;BME280;40928;51.076;7.950;2023-07-31T09:15:36;96477.03;;;15.54;100.00
55032;BME280;40928;51.076;7.950;2023-07-31T09:18:04;96477.69;;;15.41;100.00
55032;BME280;40928;51.076;7.950;2023-07-31T09:20:30;96486.75;;;15.50;100.00
55032;BME280;40928;51.076;7.950;2023-07-31T09:23:13;96498.63;;;15.44;100.00
55032;BME280;40928;51.076;7.950;2023-07-31T09:25:43;96489.06;;;15.62;100.00
55032;BME280;40928;51.076;7.950;2023-07-31T09:28:10;96489.38;;;15.55;100.00
55032;BME280;40928;51.076;7.950;2023-07-31T09:30:54;96491.03;;;15.51;100.00
55032;BME280;40928;51.076;7.950;2023-07-31T09:33:19;96493.56;;;15.37;100.00
55032;BME280;40928;51.076;7.950;2023-07-31T09:35:51;96489.81;;;15.38;100.00
55032;BME280;40928;51.076;7.950;2023-07-31T09:38:17;96493.38;;;15.28;100.00
55032;BME280;40928;51.076;7.950;2023-07-31T09:40:45;96490.22;;;15.21;100.00
55032;BME280;40928;51.076;7.950;2023-07-31T09:43:19;96491.31;;;15.20;100.00
55032;BME280;40928;51.076;7.950;2023-07-31T09:45:45;96488.41;;;15.11;100.00
55032;BME280;40928;51.076;7.950;2023-07-31T09:48:16;96482.31;;;15.00;100.00
55032;BME280;40928;51.076;7.950;2023-07-31T09:50:44;96500.03;;;15.06;100.00
55032;BME280;40928;51.076;7.950;2023-07-31T09:53:10;96496.03;;;14.99;100.00
55032;BME280;40928;51.076;7.950;2023-07-31T09:55:37;96495.75;;;15.00;100.00
55032;BME280;40928;51.076;7.950;2023-07-31T09:58:08;96486.06;;;15.04;100.00
55032;BME280;40928;51.076;7.950;2023-07-31T10:00:34;96492.00;;;14.96;100.00
55032;BME280;40928;51.076;7.950;2023-07-31T10:03:01;96477.16;;;15.04;100.00
55032;BME280;40928;51.076;7.950;2023-07-31T10:05:34;96477.69;;;15.06;100.00
55032;BME280;40928;51.076;7.950;2023-07-31T10:08:00;96468.47;;;15.17;100.00
55032;BME280;40928;51.076;7.950;2023-07-31T10:10:26;96478.38;;;15.22;100.00
55032;BME280;40928;51.076;7.950;2023-07-31T10:12:54;96467.50;;;15.37;100.00
55032;BME280;40928;51.076;7.950;2023-07-31T10:15:21;96468.50;;;15.42;100.00
55032;BME280;40928;51.076;7.950;2023-07-31T10:17:48;96453.59;;;15.55;100.00
55032;BME280;40928;51.076;7.950;2023-07-31T10:20:15;96446.91;;;15.52;100.00
55032;BME280;40928;51.076;7.950;2023-07-31T10:22:45;96462.97;;;15.57;100.00
55032;BME280;40928;51.076;7.950;2023-07-31T10:25:15;96445.75;;;15.58;100.00
55032;BME280;40928;51.076;7.950;2023-07-31T10:27:41;96456.00;;;15.56;100.00
55032;BME280;40928;51.076;7.950;2023-07-31T10:30:15;96447.16;;;15.50;100.00
55032;BME280;40928;51.076;7.950;2023-07-31T10:32:43;96451.13;;;15.58;100.00
55032;BME280;40928;51.076;7.950;2023-07-31T10:35:10;96453.16;;;15.72;100.00
55032;BME280;40928;51.076;7.950;2023-07-31T10:37:38;96456.00;;;15.80;100.00
55032;BME280;40928;51.076;7.950;2023-07-31T10:40:06;96455.78;;;15.77;100.00
55032;BME280;40928;51.076;7.950;2023-07-31T10:42:51;96450.91;;;15.79;100.00
55032;BME280;40928;51.076;7.950;2023-07-31T10:48:06;96456.63;;;15.72;100.00
55032;BME280;40928;51.076;7.950;2023-07-31T10:50:38;96461.13;;;15.82;100.00
55032;BME280;40928;51.076;7.950;2023-07-31T10:53:22;96456.88;;;15.76;100.00
55032;BME280;40928;51.076;7.950;2023-07-31T10:55:49;96453.91;;;15.77;100.00
55032;BME280;40928;51.076;7.950;2023-07-31T10:58:18;96449.94;;;15.70;100.00
55032;BME280;40928;51.076;7.950;2023-07-31T11:00:44;96444.63;;;15.64;100.00
55032;BME280;40928;51.076;7.950;2023-07-31T11:03:13;96444.50;;;15.75;100.00
55032;BME280;40928;51.076;7.950;2023-07-31T11:05:49;96447.78;;;15.72;100.00
55032;BME280;40928;51.076;7.950;2023-07-31T11:08:25;96445.09;;;15.72;100.00
55032;BME280;40928;51.076;7.950;2023-07-31T11:13:29;96441.53;;;15.76;100.00
55032;BME280;40928;51.076;7.950;2023-07-31T11:15:56;96442.28;;;15.82;100.00
55032;BME280;40928;51.076;7.950;2023-07-31T11:18:22;96443.78;;;15.93;100.00
55032;BME280;40928;51.076;7.950;2023-07-31T11:20:47;96439.53;;;16.11;100.00
55032;BME280;40928;51.076;7.950;2023-07-31T11:23:16;96429.06;;;16.29;100.00
55032;BME280;40928;51.076;7.950;2023-07-31T11:25:41;96443.13;;;16.26;100.00
55032;BME280;40928;51.076;7.950;2023-07-31T11:28:15;96431.63;;;16.39;100.00
55032;BME280;40928;51.076;7.950;2023-07-31T11:30:42;96435.63;;;16.42;100.00
55032;BME280;40928;51.076;7.950;2023-07-31T11:33:10;96442.97;;;16.36;100.00
55032;BME280;40928;51.076;7.950;2023-07-31T11:35:41;96436.06;;;16.49;100.00
55032;BME280;40928;51.076;7.950;2023-07-31T11:38:07;96434.00;;;16.60;100.00
55032;BME280;40928;51.076;7.950;2023-07-31T11:40:42;96431.25;;;16.65;100.00
55032;BME280;40928;51.076;7.950;2023-07-31T11:43:08;96438.75;;;16.68;100.00
55032;BME280;40928;51.076;7.950;2023-07-31T11:45:35;96436.69;;;16.60;100.00
55032;BME280;40928;51.076;7.950;2023-07-31T11:48:00;96427.63;;;16.56;100.00
55032;BME280;40928;51.076;7.950;2023-07-31T11:50:26;96426.97;;;16.45;100.00
55032;BME280;40928;51.076;7.950;2023-07-31T11:53:06;96437.16;;;16.67;100.00
55032;BME280;40928;51.076;7.950;2023-07-31T11:55:33;96433.28;;;16.73;100.00
55032;BME280;40928;51.076;7.950;2023-07-31T11:57:59;96427.53;;;16.61;100.00
55032;BME280;40928;51.076;7.950;2023-07-31T12:00:26;96424.56;;;16.63;100.00
55032;BME280;40928;51.076;7.950;2023-07-31T12:02:52;96413.63;;;16.54;100.00
55032;BME280;40928;51.076;7.950;2023-07-31T12:05:18;96414.34;;;16.59;100.00
55032;BME280;40928;51.076;7.950;2023-07-31T12:07:49;96409.41;;;16.48;100.00
55032;BME280;40928;51.076;7.950;2023-07-31T12:10:35;96401.53;;;16.51;100.00
55032;BME280;40928;51.076;7.950;2023-07-31T12:13:08;96418.06;;;16.64;100.00
55032;BME280;40928;51.076;7.950;2023-07-31T12:18:15;96403.22;;;16.47;100.00
55032;BME280;40928;51.076;7.950;2023-07-31T12:20:54;96401.63;;;16.46;100.00
55032;BME280;40928;51.076;7.950;2023-07-31T12:23:22;96400.81;;;16.26;100.00
55032;BME280;40928;51.076;7.950;2023-07-31T12:26:10;96389.97;;;16.32;100.00
55032;BME280;40928;51.076;7.950;2023-07-31T12:28:43;96397.16;;;16.36;100.00
55032;BME280;40928;51.076;7.950;2023-07-31T12:31:10;96390.75;;;16.32;100.00
55032;BME280;40928;51.076;7.950;2023-07-31T12:33:38;96387.91;;;16.23;100.00
55032;BME280;40928;51.076;7.950;2023-07-31T12:36:08;96395.00;;;16.19;100.00
55032;BME280;40928;51.076;7.950;2023-07-31T12:38:34;96389.72;;;16.28;100.00
55032;BME280;40928;51.076;7.950;2023-07-31T12:41:00;96398.25;;;16.35;100.00
55032;BME280;40928;51.076;7.950;2023-07-31T12:43:25;96392.66;;;16.32;100.00
55032;BME280;40928;51.076;7.950;2023-07-31T12:45:51;96393.44;;;16.32;100.00
55032;BME280;40928;51.076;7.950;2023-07-31T12:48:25;96387.28;;;16.32;100.00
55032;BME280;40928;51.076;7.950;2023-07-31T12:50:51;96396.56;;;16.20;100.00
55032;BME280;40928;51.076;7.950;2023-07-31T12:53:16;96406.78;;;16.23;100.00
55032;BME280;40928;51.076;7.950;2023-07-31T12:55:45;96397.03;;;16.08;100.00
55032;BME280;40928;51.076;7.950;2023-07-31T12:58:10;96397.81;;;16.09;100.00
55032;BME280;40928;51.076;7.950;2023-07-31T13:00:36;96394.75;;;15.96;100.00
55032;BME280;40928;51.076;7.950;2023-07-31T13:03:02;96387.59;;;16.06;100.00
55032;BME280;40928;51.076;7.950;2023-07-31T13:05:31;96382.53;;;16.23;100.00
55032;BME280;40928;51.076;7.950;2023-07-31T13:07:57;96377.63;;;16.64;100.00